createdAt,value
2018-05-12T00:01:28.038Z,95509.45
2018-05-12T00:04:00.031Z,95507.33
2018-05-12T00:06:30.951Z,95508.35
2018-05-12T00:09:03.623Z,95507.05
2018-05-12T00:11:34.821Z,95506.05
2018-05-12T00:14:06.620Z,95507.00
2018-05-12T00:16:38.056Z,95501.38
2018-05-12T00:19:09.569Z,95503.63
2018-05-12T00:21:41.538Z,95500.38
2018-05-12T00:24:13.517Z,95503.26
2018-05-12T00:26:45.048Z,95503.72
2018-05-12T00:29:16.190Z,95502.61
2018-05-12T00:31:47.987Z,95507.10
2018-05-12T00:34:18.151Z,95501.44
2018-05-12T00:36:49.809Z,95491.63
2018-05-12T00:39:19.183Z,95496.73
2018-05-12T00:41:51.551Z,95500.00
2018-05-12T00:44:22.374Z,95497.41
2018-05-12T00:46:53.753Z,95498.02
2018-05-12T00:49:24.998Z,95496.44
2018-05-12T00:51:57.577Z,95487.05
2018-05-12T00:54:30.069Z,95488.78
2018-05-12T00:57:00.872Z,95482.96
2018-05-12T00:59:32.669Z,95483.03
2018-05-12T01:02:04.574Z,95488.23
2018-05-12T01:04:36.309Z,95495.05
2018-05-12T01:07:07.211Z,95493.70
2018-05-12T01:09:39.202Z,95493.22
2018-05-12T01:12:11.035Z,95491.58
2018-05-12T01:14:43.924Z,95489.47
2018-05-12T01:17:16.003Z,95489.06
2018-05-12T01:19:47.985Z,95487.11
2018-05-12T01:22:19.723Z,95484.67
2018-05-12T01:24:51.800Z,95480.45
2018-05-12T01:27:24.149Z,95484.70
2018-05-12T01:29:59.269Z,95484.30
2018-05-12T01:32:31.092Z,95485.36
2018-05-12T01:35:02.113Z,95487.43
2018-05-12T01:37:33.525Z,95489.59
2018-05-12T01:40:05.088Z,95489.20
2018-05-12T01:42:34.821Z,95487.55
2018-05-12T01:45:06.056Z,95483.34
2018-05-12T01:47:38.158Z,95482.79
2018-05-12T01:50:09.882Z,95486.20
2018-05-12T01:52:42.588Z,95483.42
2018-05-12T01:55:14.278Z,95487.70
2018-05-12T01:57:46.452Z,95479.25
2018-05-12T02:00:17.674Z,95476.75
2018-05-12T02:02:50.741Z,95473.45
2018-05-12T02:05:22.072Z,95477.47
2018-05-12T02:07:53.750Z,95480.86
2018-05-12T02:10:24.271Z,95475.70
2018-05-12T02:12:55.553Z,95474.50
2018-05-12T02:15:28.753Z,95471.92
2018-05-12T02:18:00.637Z,95478.77
2018-05-12T02:20:31.884Z,95480.03
2018-05-12T02:23:03.698Z,95482.86
2018-05-12T02:25:36.620Z,95484.70
2018-05-12T02:28:07.648Z,95485.59
2018-05-12T02:30:39.565Z,95484.50
2018-05-12T02:33:11.053Z,95490.52
2018-05-12T02:35:43.221Z,95480.34
2018-05-12T02:38:15.816Z,95476.91
2018-05-12T02:40:48.855Z,95479.54
2018-05-12T02:43:20.282Z,95479.95
2018-05-12T02:45:52.315Z,95480.67
2018-05-12T02:48:23.991Z,95481.23
2018-05-12T02:50:55.126Z,95479.53
2018-05-12T02:53:26.442Z,95477.53
2018-05-12T02:55:59.155Z,95477.24
2018-05-12T02:58:30.445Z,95473.86
2018-05-12T03:01:00.998Z,95472.11
2018-05-12T03:03:31.827Z,95472.91
2018-05-12T03:06:03.466Z,95476.08
2018-05-12T03:08:34.475Z,95477.27
2018-05-12T03:11:06.093Z,95477.03
2018-05-12T03:13:37.441Z,95481.00
2018-05-12T03:16:08.640Z,95474.50
2018-05-12T03:18:40.194Z,95477.77
2018-05-12T03:21:11.779Z,95477.97
2018-05-12T03:23:44.968Z,95474.08
2018-05-12T03:26:16.210Z,95477.83
2018-05-12T03:28:47.687Z,95475.50
2018-05-12T03:31:19.284Z,95480.14
2018-05-12T03:33:51.073Z,95477.60
2018-05-12T03:36:22.770Z,95474.19
2018-05-12T03:38:54.952Z,95481.31
2018-05-12T03:41:27.069Z,95484.25
2018-05-12T03:43:58.291Z,95480.63
2018-05-12T03:46:29.606Z,95482.63
2018-05-12T03:49:01.419Z,95492.19
2018-05-12T03:51:32.411Z,95489.91
2018-05-12T03:54:04.539Z,95490.66
2018-05-12T03:56:34.764Z,95492.92
2018-05-12T03:59:07.716Z,95494.63
2018-05-12T04:01:39.035Z,95495.00
2018-05-12T04:04:21.750Z,95494.48
2018-05-12T04:07:04.508Z,95499.60
2018-05-12T04:09:47.026Z,95501.23
2018-05-12T04:12:30.773Z,95503.12
2018-05-12T04:15:02.712Z,95502.70
2018-05-12T04:17:35.009Z,95501.48
2018-05-12T04:20:06.487Z,95500.95
2018-05-12T04:22:38.419Z,95502.30
2018-05-12T04:25:11.186Z,95506.28
2018-05-12T04:27:42.168Z,95510.00
2018-05-12T04:30:14.595Z,95503.31
2018-05-12T04:32:46.040Z,95503.42
2018-05-12T04:35:17.513Z,95502.06
2018-05-12T04:37:48.474Z,95502.75
2018-05-12T04:40:19.787Z,95503.36
2018-05-12T04:42:50.602Z,95499.34
2018-05-12T04:45:23.576Z,95503.72
2018-05-12T04:47:54.583Z,95505.31
2018-05-12T04:50:25.582Z,95506.39
2018-05-12T04:52:56.979Z,95513.47
2018-05-12T04:55:28.488Z,95512.97
2018-05-12T04:58:00.298Z,95506.63
2018-05-12T05:00:33.857Z,95507.23
2018-05-12T05:03:05.769Z,95510.57
2018-05-12T05:05:37.208Z,95503.67
2018-05-12T05:08:07.927Z,95507.08
2018-05-12T05:10:39.059Z,95506.77
2018-05-12T05:13:10.945Z,95506.42
2018-05-12T05:15:41.715Z,95502.84
2018-05-12T05:18:13.610Z,95504.78
2018-05-12T05:20:44.959Z,95496.89
2018-05-12T05:23:16.548Z,95498.45
2018-05-12T05:25:49.704Z,95499.52
2018-05-12T05:28:20.270Z,95494.66
2018-05-12T05:30:53.601Z,95493.12
2018-05-12T05:33:24.358Z,95495.17
2018-05-12T05:35:58.021Z,95492.98
2018-05-12T05:38:30.242Z,95501.53
2018-05-12T05:41:02.676Z,95502.25
2018-05-12T05:43:35.049Z,95492.70
2018-05-12T05:46:07.473Z,95493.64
2018-05-12T05:48:38.624Z,95495.87
2018-05-12T05:51:09.855Z,95497.79
2018-05-12T05:53:41.844Z,95497.36
2018-05-12T05:56:12.379Z,95499.63
2018-05-12T05:58:42.253Z,95493.89
2018-05-12T06:01:16.088Z,95496.65
2018-05-12T06:03:47.715Z,95493.83
2018-05-12T06:06:19.632Z,95490.72
2018-05-12T06:08:51.462Z,95487.79
2018-05-12T06:11:25.719Z,95489.28
2018-05-12T06:13:57.729Z,95482.91
2018-05-12T06:16:29.681Z,95479.57
2018-05-12T06:20:22.490Z,95480.06
2018-05-12T06:22:54.824Z,95480.85
2018-05-12T06:25:28.721Z,95481.34
2018-05-12T06:28:00.996Z,95481.80
2018-05-12T06:30:33.145Z,95482.38
2018-05-12T06:33:05.720Z,95478.58
2018-05-12T06:35:37.347Z,95478.91
2018-05-12T06:38:09.616Z,95475.20
2018-05-12T06:40:43.441Z,95472.80
2018-05-12T06:43:16.190Z,95471.55
2018-05-12T06:51:01.062Z,95466.68
2018-05-12T06:53:32.939Z,95463.55
2018-05-12T06:58:40.409Z,95463.24
2018-05-12T07:01:13.325Z,95464.59
2018-05-12T07:03:44.466Z,95466.55
2018-05-12T07:06:15.811Z,95468.97
2018-05-12T07:08:48.192Z,95472.77
2018-05-12T07:11:19.990Z,95477.80
2018-05-12T07:13:51.992Z,95472.61
2018-05-12T07:16:23.969Z,95471.50
2018-05-12T07:24:08.539Z,95469.73
2018-05-12T07:26:40.508Z,95472.45
2018-05-12T07:29:12.370Z,95472.67
2018-05-12T07:31:44.186Z,95473.64
2018-05-12T07:34:15.510Z,95467.23
2018-05-12T07:36:46.499Z,95471.37
2018-05-12T07:39:17.971Z,95470.08
2018-05-12T07:41:51.016Z,95464.69
2018-05-12T07:44:23.532Z,95468.51
2018-05-12T07:49:31.171Z,95464.14
2018-05-12T07:52:02.070Z,95467.02
2018-05-12T07:54:33.913Z,95464.45
2018-05-12T07:57:05.385Z,95462.82
2018-05-12T07:59:36.997Z,95460.95
2018-05-12T08:02:08.949Z,95459.97
2018-05-12T08:04:41.315Z,95458.52
2018-05-12T08:07:13.389Z,95459.08
2018-05-12T08:09:46.505Z,95454.46
2018-05-12T08:12:18.017Z,95455.61
2018-05-12T08:17:30.022Z,95451.61
2018-05-12T08:20:01.931Z,95445.51
2018-05-12T08:22:33.615Z,95445.63
2018-05-12T08:25:07.144Z,95446.14
2018-05-12T08:30:15.280Z,95440.33
2018-05-12T08:32:47.418Z,95439.03
2018-05-12T08:35:18.849Z,95436.77
2018-05-12T08:37:51.497Z,95435.98
2018-05-12T08:42:58.965Z,95430.97
2018-05-12T08:45:31.810Z,95425.61
2018-05-12T08:48:05.131Z,95422.82
2018-05-12T08:50:38.545Z,95424.08
2018-05-12T08:53:11.373Z,95427.81
2018-05-12T08:55:43.420Z,95425.75
2018-05-12T08:58:16.162Z,95419.92
2018-05-12T09:00:50.167Z,95426.66
2018-05-12T09:03:22.964Z,95411.73
2018-05-12T09:05:55.557Z,95417.80
2018-05-12T09:08:27.344Z,95411.45
2018-05-12T09:11:00.050Z,95412.48
2018-05-12T09:16:08.711Z,95403.73
2018-05-12T09:18:40.198Z,95402.03
2018-05-12T09:21:12.948Z,95403.66
2018-05-12T09:23:45.798Z,95397.22
2018-05-12T09:26:18.163Z,95397.66
2018-05-12T09:28:53.121Z,95398.02
2018-05-12T09:34:03.441Z,95381.36
2018-05-12T09:36:37.123Z,95378.07
2018-05-12T09:39:09.071Z,95381.27
2018-05-12T09:41:42.440Z,95373.97
2018-05-12T09:44:14.725Z,95370.41
2018-05-12T09:46:46.147Z,95376.17
2018-05-12T09:49:17.613Z,95377.42
2018-05-12T09:54:27.016Z,95368.52
2018-05-12T09:56:56.636Z,95366.67
2018-05-12T10:02:04.220Z,95361.07
2018-05-12T10:07:20.355Z,95357.39
2018-05-12T10:09:53.452Z,95349.24
2018-05-12T10:12:26.668Z,95344.30
2018-05-12T10:17:38.028Z,95339.83
2018-05-12T10:20:09.334Z,95336.69
2018-05-12T10:25:19.741Z,95330.25
2018-05-12T10:33:03.412Z,95319.12
2018-05-12T10:38:12.145Z,95311.86
2018-05-12T10:40:45.373Z,95309.38
2018-05-12T10:43:17.997Z,95306.06
2018-05-12T10:45:49.216Z,95307.30
2018-05-12T10:48:22.167Z,95300.80
2018-05-12T10:50:53.180Z,95301.45
2018-05-12T10:56:03.097Z,95287.11
2018-05-12T10:58:33.885Z,95287.94
2018-05-12T11:01:05.954Z,95287.97
2018-05-12T11:03:37.399Z,95280.08
2018-05-12T11:06:09.709Z,95276.70
2018-05-12T11:08:42.177Z,95276.26
2018-05-12T11:11:12.866Z,95277.03
2018-05-12T11:13:42.969Z,95270.30
2018-05-12T11:16:14.909Z,95266.09
2018-05-12T11:18:45.631Z,95256.75
2018-05-12T11:21:18.960Z,95255.00
2018-05-12T11:23:51.638Z,95250.55
2018-05-12T11:26:23.124Z,95252.59
2018-05-12T11:28:54.725Z,95248.94
2018-05-12T11:31:28.353Z,95248.77
2018-05-12T11:34:00.882Z,95241.25
2018-05-12T11:36:32.730Z,95242.95
2018-05-12T11:39:04.927Z,95230.14
2018-05-12T11:41:38.729Z,95232.33
2018-05-12T11:44:10.299Z,95232.13
2018-05-12T11:46:42.037Z,95225.00
2018-05-12T11:49:14.348Z,95220.34
2018-05-12T11:51:47.293Z,95215.88
2018-05-12T11:54:20.543Z,95211.19
2018-05-12T11:56:51.951Z,95212.40
2018-05-12T11:59:23.775Z,95200.70
2018-05-12T12:01:55.013Z,95201.16
2018-05-12T12:04:27.181Z,95189.50
2018-05-12T12:06:59.287Z,95186.95
2018-05-12T12:09:31.746Z,95177.45
2018-05-12T12:12:02.739Z,95177.50
2018-05-12T12:14:35.300Z,95180.72
2018-05-12T12:17:07.011Z,95172.72
2018-05-12T12:19:41.064Z,95173.36
2018-05-12T12:22:14.543Z,95174.51
2018-05-12T12:24:47.252Z,95168.99
2018-05-12T12:27:19.224Z,95166.12
2018-05-12T12:29:52.318Z,95159.45
2018-05-12T12:32:23.857Z,95147.98
2018-05-12T12:34:55.083Z,95143.05
2018-05-12T12:37:27.091Z,95148.21
2018-05-12T12:39:59.560Z,95146.29
2018-05-12T12:42:31.655Z,95152.89
2018-05-12T12:45:03.253Z,95152.48
2018-05-12T12:47:33.983Z,95143.05
2018-05-12T12:50:06.082Z,95140.09
2018-05-12T12:52:36.529Z,95128.63
2018-05-12T12:55:07.225Z,95133.70
2018-05-12T13:00:15.316Z,95129.33
2018-05-12T13:08:05.404Z,95126.95
2018-05-12T13:10:38.685Z,95116.94
2018-05-12T13:13:11.989Z,95111.95
2018-05-12T13:15:45.476Z,95105.45
2018-05-12T13:18:20.316Z,95099.27
2018-05-12T13:20:54.184Z,95097.19
2018-05-12T13:23:27.637Z,95091.22
2018-05-12T13:25:59.844Z,95093.88
2018-05-12T13:33:44.987Z,95084.69
2018-05-12T13:36:18.700Z,95085.26
2018-05-12T13:38:51.303Z,95087.50
2018-05-12T13:41:24.392Z,95082.91
2018-05-12T13:43:57.257Z,95077.86
2018-05-12T13:46:30.410Z,95076.61
2018-05-12T13:49:02.914Z,95074.52
2018-05-12T13:54:12.381Z,95074.92
2018-05-12T13:56:46.228Z,95063.02
2018-05-12T13:59:19.841Z,95061.87
2018-05-12T14:01:52.938Z,95057.05
2018-05-12T14:04:26.636Z,95046.84
2018-05-12T14:06:59.515Z,95032.95
2018-05-12T14:12:09.623Z,95034.70
2018-05-12T14:14:42.790Z,95047.66
2018-05-12T14:17:17.775Z,95032.77
2018-05-12T14:19:50.841Z,95034.78
2018-05-12T14:22:23.853Z,95035.20
2018-05-12T14:24:56.616Z,95037.66
2018-05-12T14:27:32.533Z,95032.09
2018-05-12T14:30:04.935Z,95027.07
2018-05-12T14:35:14.829Z,95023.69
2018-05-12T14:37:47.972Z,95011.80
2018-05-12T14:40:17.684Z,95019.81
2018-05-12T14:42:50.767Z,95009.18
2018-05-12T14:45:23.369Z,95015.11
2018-05-12T14:50:33.234Z,95002.27
2018-05-12T14:53:05.743Z,95000.78
2018-05-12T14:55:38.376Z,95006.50
2018-05-12T14:58:09.558Z,94996.69
2018-05-12T15:00:41.520Z,94991.68
2018-05-12T15:03:13.930Z,94986.39
2018-05-12T15:05:45.123Z,94981.75
2018-05-12T15:08:17.452Z,94985.64
2018-05-12T15:13:26.140Z,94981.09
2018-05-12T15:15:57.813Z,94986.77
2018-05-12T15:18:29.214Z,94981.44
2018-05-12T15:21:02.309Z,94975.61
2018-05-12T15:23:34.735Z,94974.77
2018-05-12T15:26:06.635Z,94981.45
2018-05-12T15:28:39.074Z,94978.31
2018-05-12T15:31:14.137Z,94970.63
2018-05-12T15:33:46.918Z,94970.23
2018-05-12T15:36:19.036Z,94968.95
2018-05-12T15:38:51.392Z,94964.22
2018-05-12T15:41:22.710Z,94968.92
2018-05-12T15:43:55.608Z,94968.69
2018-05-12T15:49:03.256Z,94971.23
2018-05-12T15:51:34.903Z,94976.13
2018-05-12T15:54:07.058Z,94963.53
2018-05-12T15:56:39.070Z,94959.56
2018-05-12T15:59:11.240Z,94956.28
2018-05-12T16:01:43.303Z,94954.97
2018-05-12T16:04:14.971Z,94953.84
2018-05-12T16:09:22.754Z,94958.98
2018-05-12T16:11:54.441Z,94963.58
2018-05-12T16:14:26.385Z,94957.46
2018-05-12T16:16:59.648Z,94961.06
2018-05-12T16:19:31.180Z,94961.77
2018-05-12T16:22:02.880Z,94958.97
2018-05-12T16:24:34.320Z,94964.80
2018-05-12T16:27:06.338Z,94957.17
2018-05-12T16:29:37.913Z,94963.20
2018-05-12T16:32:11.300Z,94958.33
2018-05-12T16:34:43.300Z,94960.74
2018-05-12T16:37:15.737Z,94960.60
2018-05-12T16:42:25.335Z,94961.98
2018-05-12T16:44:57.338Z,94957.61
2018-05-12T16:47:29.844Z,94957.94
2018-05-12T16:50:02.746Z,94956.69
2018-05-12T16:52:35.044Z,94957.21
2018-05-12T16:55:06.519Z,94958.59
2018-05-12T16:57:38.361Z,94957.19
2018-05-12T17:00:10.529Z,94961.03
2018-05-12T17:02:43.846Z,94959.38
2018-05-12T17:05:17.800Z,94957.77
2018-05-12T17:07:49.625Z,94956.37
2018-05-12T17:10:22.593Z,94955.00
2018-05-12T17:12:56.207Z,94957.00
2018-05-12T17:18:04.093Z,94952.39
2018-05-12T17:20:36.165Z,94952.67
2018-05-12T17:23:07.979Z,94952.59
2018-05-12T17:25:41.635Z,94946.82
2018-05-12T17:28:14.514Z,94945.41
2018-05-12T17:30:46.702Z,94939.00
2018-05-12T17:33:18.440Z,94939.74
2018-05-12T17:35:50.371Z,94937.11
2018-05-12T17:38:22.405Z,94934.38
2018-05-12T17:40:54.643Z,94939.49
2018-05-12T17:43:27.270Z,94938.64
2018-05-12T17:45:58.874Z,94940.71
2018-05-12T17:51:07.292Z,94938.41
2018-05-12T17:53:41.756Z,94935.39
2018-05-12T17:56:14.367Z,94937.47
2018-05-12T17:58:47.660Z,94939.41
2018-05-12T18:01:18.908Z,94942.53
2018-05-12T18:03:51.079Z,94943.00
2018-05-12T18:06:23.681Z,94945.81
2018-05-12T18:08:57.810Z,94942.59
2018-05-12T18:11:30.687Z,94947.98
2018-05-12T18:14:02.526Z,94945.36
2018-05-12T18:16:34.525Z,94940.69
2018-05-12T18:19:07.187Z,94938.88
2018-05-12T18:24:16.410Z,94934.89
2018-05-12T18:26:48.578Z,94938.72
2018-05-12T18:29:20.495Z,94942.88
2018-05-12T18:31:52.003Z,94938.41
2018-05-12T18:34:22.496Z,94947.81
2018-05-12T18:36:55.777Z,94945.08
2018-05-12T18:39:27.094Z,94947.02
2018-05-12T18:41:57.868Z,94945.34
2018-05-12T18:44:29.450Z,94948.37
2018-05-12T18:47:01.891Z,94947.77
2018-05-12T18:49:34.494Z,94947.91
2018-05-12T18:52:05.460Z,94953.18
2018-05-12T18:54:37.622Z,94953.70
2018-05-12T18:57:09.448Z,94953.34
2018-05-12T18:59:40.452Z,94955.44
2018-05-12T19:02:11.137Z,94948.58
2018-05-12T19:04:44.581Z,94954.80
2018-05-12T19:07:16.433Z,94956.12
2018-05-12T19:14:59.158Z,94967.18
2018-05-12T19:17:30.850Z,94969.16
2018-05-12T19:20:04.089Z,94972.25
2018-05-12T19:22:35.893Z,94972.38
2018-05-12T19:25:07.196Z,94978.00
2018-05-12T19:27:38.846Z,94973.25
2018-05-12T19:30:14.254Z,94975.45
2018-05-12T19:32:45.445Z,94975.98
2018-05-12T19:35:17.831Z,94975.72
2018-05-12T19:37:48.755Z,94974.68
2018-05-12T19:40:21.764Z,94967.99
2018-05-12T19:42:53.316Z,94972.20
2018-05-12T19:45:26.084Z,94966.56
2018-05-12T19:47:58.149Z,94964.92
2018-05-12T19:50:30.125Z,94963.84
2018-05-12T19:58:14.808Z,94966.22
2018-05-12T20:00:46.187Z,94968.73
2018-05-12T20:03:19.065Z,94962.44
2018-05-12T20:05:51.695Z,94965.30
2018-05-12T20:08:24.029Z,94965.21
2018-05-12T20:10:55.377Z,94962.07
2018-05-12T20:13:28.035Z,94956.80
2018-05-12T20:16:00.938Z,94957.45
2018-05-12T20:21:08.505Z,94958.14
2018-05-12T20:23:41.209Z,94950.98
2018-05-12T20:26:14.520Z,94945.11
2018-05-12T20:28:48.018Z,94943.77
2018-05-12T20:31:20.341Z,94941.67
2018-05-12T20:33:52.941Z,94939.06
2018-05-12T20:36:25.492Z,94937.91
2018-05-12T20:38:58.865Z,94935.22
2018-05-12T20:44:08.046Z,94935.53
2018-05-12T20:46:40.042Z,94938.06
2018-05-12T20:49:13.299Z,94937.66
2018-05-12T20:51:45.789Z,94943.55
2018-05-12T20:54:17.290Z,94940.42
2018-05-12T20:56:48.312Z,94942.84
2018-05-12T20:59:19.968Z,94944.67
2018-05-12T21:01:51.883Z,94941.34
2018-05-12T21:04:24.226Z,94943.66
2018-05-12T21:06:56.462Z,94942.40
2018-05-12T21:09:29.687Z,94945.73
2018-05-12T21:12:02.148Z,94942.62
2018-05-12T21:14:35.640Z,94942.17
2018-05-12T21:17:08.362Z,94937.32
2018-05-12T21:19:39.911Z,94940.53
2018-05-12T21:22:12.858Z,94943.67
2018-05-12T21:24:45.581Z,94944.51
2018-05-12T21:27:18.396Z,94941.19
2018-05-12T21:32:30.185Z,94946.55
2018-05-12T21:37:38.670Z,94943.70
2018-05-12T21:40:11.954Z,94944.84
2018-05-12T21:42:44.185Z,94947.05
2018-05-12T21:45:17.034Z,94947.28
2018-05-12T21:50:25.066Z,94943.17
2018-05-12T21:52:57.509Z,94936.71
2018-05-12T21:55:29.844Z,94937.93
2018-05-12T21:58:03.446Z,94934.41
2018-05-12T22:00:35.714Z,94934.17
2018-05-12T22:03:08.022Z,94938.47
2018-05-12T22:05:40.322Z,94934.36
2018-05-12T22:08:11.668Z,94936.16
2018-05-12T22:13:20.726Z,94937.99
2018-05-12T22:18:30.159Z,94930.73
2018-05-12T22:23:47.956Z,94925.66
2018-05-12T22:26:19.982Z,94921.02
2018-05-12T22:28:52.309Z,94922.04
2018-05-12T22:31:24.595Z,94926.63
2018-05-12T22:33:57.008Z,94923.89
2018-05-12T22:36:30.967Z,94925.73
2018-05-12T22:39:03.556Z,94927.55
2018-05-12T22:41:36.575Z,94930.61
2018-05-12T22:44:08.367Z,94933.39
2018-05-12T22:46:40.706Z,94938.06
2018-05-12T22:49:12.816Z,94934.17
2018-05-12T22:51:45.989Z,94933.56
2018-05-12T22:54:16.769Z,94935.44
2018-05-12T22:56:49.080Z,94931.52
2018-05-12T22:59:20.661Z,94928.45
2018-05-12T23:01:56.873Z,94926.84
2018-05-12T23:04:29.409Z,94928.77
2018-05-12T23:07:02.877Z,94927.30
2018-05-12T23:09:37.782Z,94924.28
2018-05-12T23:12:09.825Z,94921.64
2018-05-12T23:14:43.952Z,94921.10
2018-05-12T23:17:16.836Z,94916.59
2018-05-12T23:19:49.110Z,94919.78
2018-05-12T23:22:21.819Z,94919.64
2018-05-12T23:24:55.536Z,94916.29
2018-05-12T23:27:29.189Z,94915.72
2018-05-12T23:30:01.220Z,94914.64
2018-05-12T23:32:34.107Z,94920.39
2018-05-12T23:35:07.075Z,94912.16
2018-05-12T23:37:40.129Z,94908.35
2018-05-12T23:40:13.927Z,94906.33
2018-05-12T23:42:46.750Z,94914.36
2018-05-12T23:45:17.691Z,94914.45
2018-05-12T23:50:27.220Z,94908.81
2018-05-12T23:52:59.334Z,94909.39
2018-05-12T23:55:32.721Z,94908.67
2018-05-12T23:58:04.249Z,94905.64
